Time;durP1;ratioP1;P1;durP2;ratioP2;P2;SDS_P1;SDS_P2;PMS_P1;PMS_P2;Temp;Humidity;BMP_temperature;BMP_pressure;BME280_temperature;BME280_humidity;BME280_pressure;Samples;Min_cycle;Max_cycle;Signal;HPM_P1;HPM_P2
2021/03/23 00:01:28;;;;;;;35.13;15.15;;;8.60;99.90;;;;;;5016194;28;20245;-76
2021/03/23 00:03:53;;;;;;;32.30;14.95;;;8.60;99.90;;;;;;5033780;28;20578;-75
2021/03/23 00:06:25;;;;;;;32.88;14.88;;;8.60;99.90;;;;;;4999773;28;20222;-75
2021/03/23 00:08:55;;;;;;;29.15;14.77;;;8.70;99.90;;;;;;5033336;28;20230;-75
2021/03/23 00:11:31;;;;;;;27.38;15.60;;;8.70;99.90;;;;;;5033593;28;20556;-75
2021/03/23 00:13:59;;;;;;;28.00;14.40;;;8.70;99.90;;;;;;5015527;28;20537;-76
2021/03/23 00:16:31;;;;;;;37.90;13.07;;;8.70;99.90;;;;;;5033942;28;20202;-76
2021/03/23 00:18:57;;;;;;;32.30;15.02;;;8.70;99.90;;;;;;5033612;28;20171;-75
2021/03/23 00:21:25;;;;;;;30.77;15.57;;;8.70;99.90;;;;;;5033578;28;20172;-75
2021/03/23 00:23:51;;;;;;;30.38;13.35;;;8.70;99.90;;;;;;5032972;28;20176;-76
2021/03/23 00:26:19;;;;;;;35.80;14.73;;;8.70;99.90;;;;;;5033019;28;20226;-75
2021/03/23 00:28:47;;;;;;;32.22;14.98;;;8.70;99.90;;;;;;5015692;28;20180;-76
2021/03/23 00:31:19;;;;;;;32.50;14.65;;;8.80;99.90;;;;;;5015472;28;20172;-75
2021/03/23 00:33:45;;;;;;;28.75;14.35;;;8.80;99.90;;;;;;5033328;28;20655;-75
2021/03/23 00:36:12;;;;;;;26.92;14.40;;;8.80;99.90;;;;;;5033865;28;20534;-75
2021/03/23 00:38:40;;;;;;;35.10;13.70;;;8.80;99.90;;;;;;5015341;28;20168;-75
2021/03/23 00:41:07;;;;;;;31.55;14.20;;;8.90;99.90;;;;;;5015519;28;20172;-76
2021/03/23 00:43:33;;;;;;;30.98;14.25;;;8.90;99.90;;;;;;5033167;28;20666;-76
2021/03/23 00:45:58;;;;;;;29.40;14.35;;;8.90;99.90;;;;;;5031725;28;20208;-76
2021/03/23 00:48:24;;;;;;;30.60;14.27;;;8.90;99.90;;;;;;5033364;28;20176;-76
2021/03/23 00:50:50;;;;;;;29.77;14.60;;;8.90;99.90;;;;;;5015259;28;20579;-76
2021/03/23 00:53:17;;;;;;;30.88;14.38;;;8.90;99.90;;;;;;5033384;28;20179;-76
2021/03/23 00:55:42;;;;;;;32.83;14.25;;;9.00;99.90;;;;;;5032503;28;20179;-76
2021/03/23 00:58:08;;;;;;;31.40;14.85;;;9.00;99.90;;;;;;5015769;28;20175;-75
2021/03/23 01:00:34;;;;;;;29.20;14.40;;;9.10;99.90;;;;;;5032840;28;20239;-75
2021/03/23 01:03:00;;;;;;;36.30;14.70;;;9.10;99.90;;;;;;5032842;28;20529;-75
2021/03/23 01:05:30;;;;;;;38.97;14.70;;;9.00;99.90;;;;;;5025178;28;20195;-76
2021/03/23 01:07:56;;;;;;;32.25;15.07;;;9.00;99.90;;;;;;5052922;28;20708;-76
2021/03/23 01:10:24;;;;;;;39.97;16.27;;;9.00;99.90;;;;;;5019535;28;20263;-76
2021/03/23 01:12:50;;;;;;;28.05;14.35;;;9.00;99.90;;;;;;5015324;28;20603;-76
2021/03/23 01:15:19;;;;;;;32.78;14.38;;;9.00;99.90;;;;;;5015164;28;20199;-76
2021/03/23 01:17:44;;;;;;;31.42;14.77;;;8.90;99.90;;;;;;5015452;28;20164;-76
2021/03/23 01:20:13;;;;;;;26.85;13.25;;;8.90;99.90;;;;;;5032949;28;20519;-75
2021/03/23 01:22:39;;;;;;;30.75;15.20;;;8.90;99.90;;;;;;5036661;28;20218;-76
2021/03/23 01:25:06;;;;;;;25.60;14.15;;;8.80;99.90;;;;;;5036694;28;20203;-76
2021/03/23 01:27:33;;;;;;;33.47;15.88;;;8.80;99.90;;;;;;5036852;28;20256;-75
2021/03/23 01:29:58;;;;;;;24.08;13.98;;;8.80;99.90;;;;;;5018978;28;20312;-76
2021/03/23 01:32:24;;;;;;;24.85;14.13;;;8.90;99.90;;;;;;5002831;28;20180;-76
2021/03/23 01:34:50;;;;;;;31.27;14.63;;;9.00;99.90;;;;;;5002775;28;20180;-76
2021/03/23 01:37:16;;;;;;;25.63;13.88;;;8.90;99.90;;;;;;5036946;28;20630;-76
2021/03/23 01:39:43;;;;;;;30.75;15.00;;;9.00;99.90;;;;;;5037107;28;20176;-76
2021/03/23 01:42:11;;;;;;;32.47;15.13;;;8.90;99.90;;;;;;5018789;28;20193;-76
2021/03/23 01:44:42;;;;;;;30.70;14.90;;;9.00;99.90;;;;;;5018643;28;20212;-75
2021/03/23 01:47:08;;;;;;;33.88;15.43;;;9.10;99.90;;;;;;5018353;28;20658;-76
2021/03/23 01:49:36;;;;;;;29.83;15.27;;;9.00;99.90;;;;;;5036629;28;20247;-75
2021/03/23 01:52:15;;;;;;;26.17;14.68;;;9.00;99.90;;;;;;5018776;28;20180;-76
2021/03/23 01:54:59;;;;;;;35.85;15.05;;;8.90;99.90;;;;;;5036372;28;20183;-76
2021/03/23 01:57:24;;;;;;;37.67;15.23;;;8.90;99.90;;;;;;5019230;28;20640;-75
2021/03/23 01:59:57;;;;;;;26.08;14.45;;;8.90;99.90;;;;;;5036499;28;20183;-75
2021/03/23 02:02:28;;;;;;;34.17;15.48;;;9.00;99.90;;;;;;5018372;28;20174;-76
2021/03/23 02:04:54;;;;;;;32.63;15.18;;;9.00;99.90;;;;;;5036262;28;20546;-77
2021/03/23 02:07:20;;;;;;;28.48;14.60;;;9.00;99.90;;;;;;5018266;28;20578;-76
2021/03/23 02:09:46;;;;;;;25.33;13.75;;;9.00;99.90;;;;;;5036286;28;20589;-76
2021/03/23 02:12:18;;;;;;;25.80;13.25;;;9.00;99.90;;;;;;5036358;28;20226;-76
2021/03/23 02:14:47;;;;;;;31.58;14.35;;;9.00;99.90;;;;;;5018179;28;20574;-76
2021/03/23 02:17:29;;;;;;;34.17;14.65;;;9.00;99.90;;;;;;5018230;28;20176;-76
2021/03/23 02:19:58;;;;;;;30.13;13.50;;;9.00;99.90;;;;;;5036755;28;20548;-76
2021/03/23 02:22:32;;;;;;;33.20;14.20;;;9.00;99.90;;;;;;5035691;28;20168;-76
2021/03/23 02:25:01;;;;;;;29.67;14.15;;;9.00;99.90;;;;;;5017542;28;20274;-76
2021/03/23 02:27:28;;;;;;;33.25;15.98;;;9.10;99.90;;;;;;5018119;28;20215;-76
2021/03/23 02:29:56;;;;;;;29.27;14.00;;;9.10;99.90;;;;;;5018191;28;20169;-77
2021/03/23 02:32:22;;;;;;;33.67;14.52;;;9.20;99.90;;;;;;5016665;28;20176;-76
2021/03/23 02:34:48;;;;;;;24.10;13.35;;;9.20;99.90;;;;;;5001807;28;20710;-75
2021/03/23 02:37:15;;;;;;;27.83;14.50;;;9.20;99.90;;;;;;5036050;28;20168;-76
2021/03/23 02:39:41;;;;;;;35.10;15.60;;;9.10;99.90;;;;;;5018284;28;20262;-76
2021/03/23 02:42:07;;;;;;;20.58;13.20;;;9.20;99.90;;;;;;5035324;28;20272;-76
2021/03/23 02:44:47;;;;;;;30.33;14.05;;;9.20;99.90;;;;;;5017142;28;20191;-76
2021/03/23 02:47:15;;;;;;;25.17;13.50;;;9.20;99.90;;;;;;5035792;28;20259;-76
2021/03/23 02:49:42;;;;;;;28.83;14.35;;;9.20;99.90;;;;;;5017791;28;20580;-75
2021/03/23 02:52:09;;;;;;;24.42;14.30;;;9.20;99.90;;;;;;5001323;28;20178;-77
2021/03/23 02:54:34;;;;;;;24.58;13.77;;;9.20;99.90;;;;;;5017664;28;20187;-76
2021/03/23 02:57:00;;;;;;;28.98;14.25;;;9.10;99.90;;;;;;5017564;28;20180;-76
2021/03/23 02:59:26;;;;;;;25.75;14.10;;;9.20;99.90;;;;;;5017282;28;20234;-76
2021/03/23 03:01:51;;;;;;;24.73;14.52;;;9.20;99.90;;;;;;5034235;28;20175;-76
2021/03/23 03:04:17;;;;;;;27.58;14.60;;;9.20;99.90;;;;;;5035523;28;20652;-75
2021/03/23 03:06:43;;;;;;;26.13;14.00;;;9.20;99.90;;;;;;5035250;28;20167;-77
2021/03/23 03:09:09;;;;;;;23.73;13.55;;;9.30;99.90;;;;;;5035007;28;20173;-76
2021/03/23 03:11:35;;;;;;;27.98;13.95;;;9.30;99.90;;;;;;5034742;28;20175;-76
2021/03/23 03:14:01;;;;;;;29.77;14.50;;;9.20;99.90;;;;;;5000430;28;20532;-76
2021/03/23 03:16:26;;;;;;;28.52;14.70;;;9.20;99.90;;;;;;5035218;28;20167;-76
2021/03/23 03:18:52;;;;;;;30.58;14.85;;;9.20;99.90;;;;;;5034852;28;20165;-75
2021/03/23 03:21:18;;;;;;;37.47;15.27;;;9.10;99.90;;;;;;5017172;28;20583;-76
2021/03/23 03:23:43;;;;;;;27.13;12.98;;;9.10;99.90;;;;;;5016760;28;20625;-77
2021/03/23 03:26:09;;;;;;;26.48;14.05;;;9.10;99.90;;;;;;5034664;28;20572;-76
2021/03/23 03:28:36;;;;;;;28.60;14.77;;;9.10;99.90;;;;;;5034395;28;20176;-76
2021/03/23 03:31:02;;;;;;;30.38;16.02;;;9.10;99.90;;;;;;5017213;28;20175;-76
2021/03/23 03:33:27;;;;;;;30.92;15.40;;;9.10;99.90;;;;;;5016910;28;20192;-76
2021/03/23 03:35:53;;;;;;;29.58;15.15;;;9.10;99.90;;;;;;5017130;28;20273;-76
2021/03/23 03:38:22;;;;;;;29.42;14.75;;;9.10;99.90;;;;;;5034429;28;20252;-75
2021/03/23 03:40:55;;;;;;;35.65;17.00;;;9.10;99.90;;;;;;5015897;28;20211;-76
2021/03/23 03:43:28;;;;;;;27.05;14.63;;;9.10;99.90;;;;;;5016345;28;20219;-77
2021/03/23 03:45:55;;;;;;;28.17;15.55;;;9.20;99.90;;;;;;5034371;28;20664;-76
2021/03/23 03:48:21;;;;;;;37.83;16.70;;;9.00;99.90;;;;;;5034114;28;20226;-76
2021/03/23 03:50:47;;;;;;;33.00;16.00;;;8.90;99.90;;;;;;5016045;28;20279;-76
2021/03/23 03:53:13;;;;;;;38.83;16.77;;;8.80;99.90;;;;;;5016506;28;20245;-75
2021/03/23 03:55:42;;;;;;;35.08;16.80;;;8.70;99.90;;;;;;5034264;28;20654;-76
2021/03/23 03:58:08;;;;;;;29.73;16.30;;;8.70;99.90;;;;;;5016496;28;20575;-76
2021/03/23 04:00:36;;;;;;;48.40;16.85;;;8.70;99.90;;;;;;5016327;28;20164;-76
2021/03/23 04:03:04;;;;;;;32.58;17.42;;;8.70;99.90;;;;;;5016548;28;20177;-76
2021/03/23 04:05:35;;;;;;;35.35;18.45;;;8.60;99.90;;;;;;5033704;28;20188;-75
2021/03/23 04:08:02;;;;;;;32.78;17.70;;;8.60;99.90;;;;;;5033789;28;20246;-75
2021/03/23 04:10:29;;;;;;;36.55;17.80;;;8.70;99.90;;;;;;5015656;28;20183;-76
2021/03/23 04:12:55;;;;;;;44.13;18.30;;;8.70;99.90;;;;;;5016243;28;20250;-75
2021/03/23 04:15:32;;;;;;;46.13;17.33;;;8.70;99.90;;;;;;5033799;28;20738;-75
2021/03/23 04:17:59;;;;;;;32.22;16.85;;;8.60;99.90;;;;;;5033899;28;20187;-76
2021/03/23 04:20:26;;;;;;;35.50;17.75;;;8.60;99.90;;;;;;4999476;28;20257;-76
2021/03/23 04:22:53;;;;;;;29.58;16.92;;;8.60;99.90;;;;;;5013501;28;20615;-76
2021/03/23 04:25:21;;;;;;;42.03;17.80;;;8.60;99.90;;;;;;4996157;28;20212;-76
2021/03/23 04:27:48;;;;;;;33.55;18.08;;;8.60;99.90;;;;;;4996202;28;20188;-76
2021/03/23 04:30:14;;;;;;;35.67;18.35;;;8.60;99.90;;;;;;5013781;28;20231;-76
2021/03/23 04:32:40;;;;;;;45.70;18.48;;;8.60;99.90;;;;;;4980106;28;20748;-76
2021/03/23 04:35:08;;;;;;;37.63;19.10;;;8.60;99.90;;;;;;4996334;28;20271;-75
2021/03/23 04:37:34;;;;;;;36.95;18.30;;;8.70;99.90;;;;;;5003843;28;20194;-77
2021/03/23 04:40:01;;;;;;;31.83;17.17;;;8.80;99.90;;;;;;4998890;28;20227;-76
2021/03/23 04:42:27;;;;;;;40.83;17.73;;;8.70;99.90;;;;;;5033426;28;20183;-76
2021/03/23 04:44:52;;;;;;;38.85;17.15;;;8.70;99.90;;;;;;5015545;28;20220;-75
2021/03/23 04:47:18;;;;;;;35.08;17.88;;;8.60;99.90;;;;;;5033381;28;20555;-75
2021/03/23 04:49:44;;;;;;;34.90;17.65;;;8.60;99.90;;;;;;5033147;28;20194;-76
2021/03/23 04:52:09;;;;;;;38.33;17.45;;;8.60;99.90;;;;;;5032940;28;20275;-76
2021/03/23 04:54:35;;;;;;;32.17;18.30;;;8.70;99.90;;;;;;4998799;28;20180;-76
2021/03/23 04:57:01;;;;;;;39.83;17.33;;;8.80;99.90;;;;;;5031564;28;20711;-76
2021/03/23 04:59:26;;;;;;;30.02;17.52;;;8.80;99.90;;;;;;5015110;28;20516;-76
2021/03/23 05:01:52;;;;;;;44.05;17.95;;;8.80;99.90;;;;;;4999153;28;20187;-75
2021/03/23 05:04:19;;;;;;;37.53;17.58;;;8.70;99.90;;;;;;5015341;28;20543;-75
2021/03/23 05:06:44;;;;;;;34.88;17.85;;;8.70;99.90;;;;;;5033325;28;20179;-75
2021/03/23 05:09:11;;;;;;;32.42;17.48;;;8.70;99.90;;;;;;5015531;28;20184;-76
2021/03/23 05:11:37;;;;;;;31.50;18.00;;;8.60;99.90;;;;;;5015551;28;20178;-76
2021/03/23 05:14:05;;;;;;;37.17;16.98;;;8.50;99.90;;;;;;5015480;28;20626;-76
2021/03/23 05:16:31;;;;;;;35.63;18.48;;;8.40;99.90;;;;;;5033035;28;20223;-76
2021/03/23 05:18:57;;;;;;;39.95;17.88;;;8.30;99.90;;;;;;5015024;28;20708;-75
2021/03/23 05:21:24;;;;;;;39.67;18.60;;;8.30;99.90;;;;;;5032913;28;20248;-76
2021/03/23 05:23:52;;;;;;;40.85;18.17;;;8.20;99.90;;;;;;5033144;28;20168;-76
2021/03/23 05:26:18;;;;;;;36.75;18.45;;;8.10;99.90;;;;;;5033076;28;20259;-76
2021/03/23 05:28:47;;;;;;;40.28;18.80;;;8.10;99.90;;;;;;5014966;28;20276;-75
2021/03/23 05:31:14;;;;;;;36.58;17.88;;;8.00;99.90;;;;;;5032741;28;20180;-76
2021/03/23 05:33:41;;;;;;;37.92;19.80;;;8.00;99.90;;;;;;5032638;28;20658;-75
2021/03/23 05:36:07;;;;;;;38.80;19.50;;;7.90;99.90;;;;;;5015404;28;20180;-75
2021/03/23 05:38:32;;;;;;;52.93;19.33;;;7.80;99.90;;;;;;5015190;28;20599;-75
2021/03/23 05:41:10;;;;;;;39.58;20.50;;;7.70;99.90;;;;;;5014890;28;20270;-75
2021/03/23 05:44:03;;;;;;;45.30;19.00;;;7.60;99.90;;;;;;5032725;28;20164;-75
2021/03/23 05:46:32;;;;;;;32.92;19.52;;;7.40;99.90;;;;;;5032719;28;20203;-75
2021/03/23 05:49:10;;;;;;;41.67;19.60;;;7.40;99.90;;;;;;5032850;28;20165;-75
2021/03/23 05:51:41;;;;;;;46.50;19.67;;;7.30;99.90;;;;;;5032479;28;20175;-75
2021/03/23 05:54:19;;;;;;;44.80;20.40;;;7.20;99.90;;;;;;5031094;28;20212;-75
2021/03/23 05:56:54;;;;;;;41.00;19.43;;;7.20;99.90;;;;;;5033072;28;20613;-75
2021/03/23 05:59:31;;;;;;;39.57;20.03;;;7.10;99.90;;;;;;5014502;28;20256;-75
2021/03/23 06:02:04;;;;;;;46.93;21.37;;;7.10;99.90;;;;;;5032388;28;20172;-75
2021/03/23 06:04:51;;;;;;;51.50;21.83;;;7.20;99.90;;;;;;5032639;28;20200;-75
2021/03/23 06:07:17;;;;;;;40.40;20.73;;;7.40;99.90;;;;;;5034035;28;20175;-75
2021/03/23 06:09:45;;;;;;;48.10;21.67;;;7.50;99.90;;;;;;5036310;28;20168;-75
2021/03/23 06:12:38;;;;;;;40.50;21.13;;;7.60;99.90;;;;;;5036036;28;20175;-75
2021/03/23 06:15:27;;;;;;;45.63;22.20;;;7.60;99.90;;;;;;5018344;28;20176;-75
2021/03/23 06:18:02;;;;;;;48.33;20.93;;;7.80;99.90;;;;;;5036035;28;20203;-75
2021/03/23 06:20:40;;;;;;;42.10;20.57;;;8.00;99.90;;;;;;5035827;28;20206;-75
2021/03/23 06:23:43;;;;;;;47.67;21.30;;;8.10;99.90;;;;;;5015001;28;20230;-75
2021/03/23 06:26:17;;;;;;;38.50;18.50;;;8.20;99.90;;;;;;5014791;28;20219;-75
2021/03/23 06:29:06;;;;;;;46.67;20.95;;;8.40;99.90;;;;;;5016076;28;20183;-75
2021/03/23 06:32:05;;;;;;;42.23;21.13;;;8.40;99.90;;;;;;5026510;28;20172;-75
2021/03/23 06:34:34;;;;;;;39.33;20.58;;;8.60;99.90;;;;;;5036110;28;20259;-75
2021/03/23 06:37:01;;;;;;;39.90;19.98;;;8.70;99.90;;;;;;5018098;28;20237;-75
2021/03/23 06:39:30;;;;;;;45.20;20.65;;;8.90;99.90;;;;;;5035728;28;20172;-75
2021/03/23 06:42:02;;;;;;;36.05;19.63;;;9.10;99.90;;;;;;5035456;28;20168;-75
2021/03/23 06:44:38;;;;;;;37.67;18.73;;;9.30;99.90;;;;;;5035069;28;20727;-75
2021/03/23 06:47:05;;;;;;;42.67;20.17;;;9.40;99.90;;;;;;5035698;28;20167;-76
2021/03/23 06:49:37;;;;;;;38.60;19.48;;;9.50;99.90;;;;;;5035724;28;20173;-75
2021/03/23 06:52:21;;;;;;;41.20;19.75;;;9.60;99.90;;;;;;5034706;28;20168;-76
2021/03/23 06:55:24;;;;;;;38.10;20.27;;;9.70;99.90;;;;;;5035304;28;20371;-76
2021/03/23 06:57:50;;;;;;;39.25;20.95;;;9.80;99.90;;;;;;5035355;28;20183;-75
2021/03/23 07:00:15;;;;;;;47.08;21.73;;;10.10;99.90;;;;;;5000989;28;20176;-75
2021/03/23 07:02:54;;;;;;;42.35;21.90;;;10.30;99.90;;;;;;5034570;28;20172;-75
2021/03/23 07:05:40;;;;;;;43.05;20.50;;;10.60;99.90;;;;;;5017100;28;20207;-75
2021/03/23 07:08:09;;;;;;;46.20;20.05;;;10.80;99.90;;;;;;5017484;28;20171;-75
2021/03/23 07:10:58;;;;;;;34.33;19.63;;;11.00;99.90;;;;;;5034989;28;20625;-75
2021/03/23 07:13:27;;;;;;;38.80;19.70;;;11.30;99.90;;;;;;5034319;28;20183;-75
2021/03/23 07:16:10;;;;;;;53.47;24.98;;;11.70;99.90;;;;;;5035136;28;20235;-75
2021/03/23 07:18:45;;;;;;;47.88;25.33;;;12.40;99.90;;;;;;5034223;28;20171;-75
2021/03/23 07:21:15;;;;;;;40.38;20.55;;;13.30;99.90;;;;;;5034886;28;20523;-75
2021/03/23 07:23:42;;;;;;;43.50;22.70;;;14.70;99.90;;;;;;5017014;28;20170;-75
2021/03/23 07:26:27;;;;;;;45.03;21.02;;;16.00;99.90;;;;;;5034102;28;20200;-75
2021/03/23 07:29:14;;;;;;;86.32;39.60;;;16.70;99.90;;;;;;5017077;28;20172;-75
2021/03/23 07:32:04;;;;;;;53.25;25.63;;;18.20;99.90;;;;;;5016214;28;20176;-74
2021/03/23 07:34:40;;;;;;;30.48;18.48;;;19.20;99.90;;;;;;5016861;28;20537;-75
2021/03/23 07:37:31;;;;;;;48.58;23.98;;;20.40;99.90;;;;;;5017058;28;20172;-75
2021/03/23 07:40:02;;;;;;;46.33;21.45;;;21.00;99.90;;;;;;5016642;28;20271;-75
2021/03/23 07:42:38;;;;;;;52.03;23.10;;;21.10;99.90;;;;;;5016579;28;20168;-76
2021/03/23 07:45:27;;;;;;;31.25;17.67;;;21.70;99.90;;;;;;5034115;28;20195;-76
2021/03/23 07:48:15;;;;;;;33.75;19.70;;;22.00;99.90;;;;;;5034324;28;20168;-76
2021/03/23 07:50:46;;;;;;;27.42;17.20;;;22.20;99.90;;;;;;5034364;28;20169;-76
2021/03/23 07:53:21;;;;;;;28.35;17.55;;;22.30;99.90;;;;;;5034151;28;20172;-75
2021/03/23 07:55:49;;;;;;;32.30;18.17;;;22.30;99.90;;;;;;5016463;28;20195;-75
2021/03/23 07:58:21;;;;;;;27.88;16.92;;;22.50;99.90;;;;;;5034452;28;20169;-75
2021/03/23 08:01:10;;;;;;;27.85;16.63;;;22.30;99.60;;;;;;5034028;28;20255;-75
2021/03/23 08:03:39;;;;;;;30.88;17.95;;;22.60;99.80;;;;;;5033714;28;20711;-75
2021/03/23 08:06:13;;;;;;;31.52;16.83;;;23.50;98.00;;;;;;5034154;28;20283;-75
2021/03/23 08:09:03;;;;;;;29.65;17.02;;;23.50;97.70;;;;;;5033738;28;20166;-75
2021/03/23 08:11:48;;;;;;;28.73;18.40;;;24.10;96.40;;;;;;5033240;28;20916;-76
2021/03/23 08:14:25;;;;;;;22.92;15.73;;;24.10;95.90;;;;;;5033876;28;20182;-75
2021/03/23 08:16:59;;;;;;;24.38;16.50;;;24.30;95.50;;;;;;5033445;28;20572;-76
2021/03/23 08:19:53;;;;;;;28.05;16.55;;;24.80;94.30;;;;;;5033965;28;20222;-75
2021/03/23 08:22:38;;;;;;;35.38;17.27;;;24.80;93.40;;;;;;5015799;28;20172;-75
2021/03/23 08:25:23;;;;;;;25.75;15.50;;;24.60;93.50;;;;;;5016099;28;20204;-75
2021/03/23 08:27:54;;;;;;;32.35;17.40;;;24.30;93.20;;;;;;5033612;28;20172;-75
2021/03/23 08:30:29;;;;;;;23.48;15.50;;;24.50;93.10;;;;;;5032784;28;20230;-75
2021/03/23 08:33:19;;;;;;;26.50;16.63;;;24.90;93.00;;;;;;5033309;28;20174;-76
2021/03/23 08:36:04;;;;;;;21.58;14.43;;;25.20;91.40;;;;;;5015805;28;20731;-76
2021/03/23 08:38:48;;;;;;;25.80;15.05;;;25.20;91.20;;;;;;5033491;28;20171;-75
2021/03/23 08:41:39;;;;;;;26.52;15.45;;;25.20;91.60;;;;;;5015820;28;20176;-75
2021/03/23 08:44:14;;;;;;;27.75;15.00;;;25.30;91.00;;;;;;5032824;28;20176;-75
2021/03/23 08:46:40;;;;;;;26.88;15.40;;;26.60;90.20;;;;;;5033443;28;20175;-76
2021/03/23 08:49:15;;;;;;;24.25;14.57;;;27.20;89.30;;;;;;5033525;28;20168;-75
2021/03/23 08:51:46;;;;;;;21.08;14.35;;;26.80;85.80;;;;;;5032816;28;20690;-75
2021/03/23 08:54:32;;;;;;;29.60;16.23;;;26.70;86.60;;;;;;5015707;28;20171;-75
2021/03/23 08:56:59;;;;;;;25.08;13.88;;;26.90;84.40;;;;;;5033187;28;20216;-75
2021/03/23 08:59:30;;;;;;;20.02;13.80;;;28.10;83.80;;;;;;5033181;28;20525;-75
2021/03/23 09:01:57;;;;;;;22.10;13.48;;;28.50;83.70;;;;;;5031751;28;20255;-76
2021/03/23 09:04:22;;;;;;;25.85;13.80;;;28.30;81.40;;;;;;5032966;28;20326;-75
2021/03/23 09:06:53;;;;;;;20.73;13.35;;;27.80;81.60;;;;;;5032994;28;20255;-75
2021/03/23 09:09:26;;;;;;;18.33;12.63;;;27.50;83.60;;;;;;5032723;28;20176;-75
2021/03/23 09:11:52;;;;;;;18.77;12.45;;;27.90;83.20;;;;;;5018667;28;20255;-75
2021/03/23 09:14:22;;;;;;;27.92;11.85;;;28.30;80.40;;;;;;5032428;28;20653;-75
2021/03/23 09:16:50;;;;;;;17.90;12.02;;;28.70;80.20;;;;;;5032496;28;20182;-75
2021/03/23 09:19:36;;;;;;;21.60;12.07;;;28.10;79.00;;;;;;5031850;28;20180;-75
2021/03/23 09:22:02;;;;;;;18.50;12.32;;;27.70;79.40;;;;;;5015265;28;20199;-75
2021/03/23 09:24:33;;;;;;;18.10;11.43;;;27.90;80.20;;;;;;5032668;28;20242;-75
2021/03/23 09:26:59;;;;;;;18.67;11.77;;;27.50;79.20;;;;;;5015201;28;20262;-75
2021/03/23 09:29:33;;;;;;;15.60;11.40;;;28.20;77.90;;;;;;5015402;28;20169;-75
2021/03/23 09:32:06;;;;;;;21.40;11.90;;;28.40;77.20;;;;;;5033118;28;20187;-75
2021/03/23 09:35:10;;;;;;;25.95;11.38;;;27.80;77.70;;;;;;5032851;28;20598;-75
2021/03/23 09:37:41;;;;;;;17.58;11.23;;;28.20;78.40;;;;;;5015269;28;20209;-75
2021/03/23 09:40:19;;;;;;;21.38;11.38;;;28.40;77.90;;;;;;5032922;28;20585;-75
2021/03/23 09:42:47;;;;;;;16.55;11.10;;;27.50;78.30;;;;;;5035075;28;20192;-76
2021/03/23 09:45:13;;;;;;;25.77;10.93;;;27.50;79.00;;;;;;5036423;28;20683;-76
2021/03/23 09:47:51;;;;;;;21.83;11.70;;;26.40;79.30;;;;;;5018479;28;20254;-76
2021/03/23 09:50:36;;;;;;;14.77;10.85;;;26.90;79.20;;;;;;5019101;28;20238;-76
2021/03/23 09:53:20;;;;;;;15.60;10.07;;;26.70;79.40;;;;;;5036413;28;20647;-76
2021/03/23 09:55:46;;;;;;;16.73;10.45;;;26.70;79.10;;;;;;5018957;28;20192;-76
2021/03/23 09:58:19;;;;;;;22.67;10.80;;;26.40;80.80;;;;;;5036286;28;20168;-76
2021/03/23 10:00:45;;;;;;;25.92;10.57;;;26.00;79.60;;;;;;5036371;28;20710;-75
2021/03/23 10:03:34;;;;;;;14.23;10.02;;;26.30;78.90;;;;;;5018804;28;20179;-75
2021/03/23 10:06:04;;;;;;;19.80;10.27;;;25.90;78.60;;;;;;5036278;28;20196;-76
2021/03/23 10:08:34;;;;;;;21.95;10.13;;;26.30;78.50;;;;;;5035721;28;20176;-76
2021/03/23 10:11:16;;;;;;;21.52;10.77;;;26.90;79.30;;;;;;5036178;28;20172;-76
2021/03/23 10:13:57;;;;;;;17.80;10.63;;;26.30;77.70;;;;;;5036481;28;20172;-76
2021/03/23 10:16:26;;;;;;;22.10;11.48;;;26.10;80.00;;;;;;5035932;28;20167;-76
2021/03/23 10:18:52;;;;;;;15.07;9.80;;;26.70;78.10;;;;;;5017962;28;20183;-76
2021/03/23 10:21:25;;;;;;;16.30;9.40;;;26.90;77.20;;;;;;5035859;28;20174;-76
2021/03/23 10:23:56;;;;;;;18.73;9.95;;;26.90;78.50;;;;;;5035922;28;20529;-76
2021/03/23 10:26:25;;;;;;;19.70;10.20;;;26.10;78.50;;;;;;5035781;28;20257;-76
2021/03/23 10:28:53;;;;;;;17.63;10.50;;;26.60;79.20;;;;;;5018221;28;20187;-76
2021/03/23 10:31:37;;;;;;;18.88;10.18;;;26.60;79.10;;;;;;5035797;28;20230;-75
2021/03/23 10:34:19;;;;;;;18.70;9.60;;;26.60;78.30;;;;;;5035891;28;20180;-75
2021/03/23 10:36:48;;;;;;;17.17;9.02;;;26.80;78.60;;;;;;5035876;28;20160;-75
2021/03/23 10:39:30;;;;;;;13.20;9.65;;;26.30;77.80;;;;;;5035673;28;20176;-75
2021/03/23 10:41:58;;;;;;;13.57;9.20;;;26.40;78.80;;;;;;5035529;28;20230;-75
2021/03/23 10:44:30;;;;;;;19.10;9.48;;;26.30;78.30;;;;;;5035119;28;20180;-77
2021/03/23 10:46:59;;;;;;;19.27;10.15;;;26.30;79.60;;;;;;5011957;28;20740;-75
2021/03/23 10:49:29;;;;;;;16.60;10.93;;;26.90;79.50;;;;;;5035094;28;20208;-75
2021/03/23 10:52:20;;;;;;;14.57;10.02;;;26.90;77.50;;;;;;5017792;28;20187;-75
2021/03/23 10:54:46;;;;;;;24.45;11.35;;;26.80;77.60;;;;;;5034673;28;20172;-75
2021/03/23 10:57:26;;;;;;;23.25;10.88;;;26.20;79.40;;;;;;5035622;28;20189;-75
2021/03/23 10:59:52;;;;;;;19.83;10.50;;;26.70;77.90;;;;;;5035469;28;20214;-75
2021/03/23 11:02:30;;;;;;;14.90;9.55;;;27.20;75.30;;;;;;5034773;28;20174;-76
2021/03/23 11:05:02;;;;;;;24.40;10.13;;;27.60;75.30;;;;;;5034708;28;20257;-75
2021/03/23 11:07:30;;;;;;;23.08;11.43;;;26.20;76.00;;;;;;5035289;28;20172;-75
2021/03/23 11:09:58;;;;;;;19.55;11.30;;;23.80;80.40;;;;;;5035104;28;20578;-75
2021/03/23 11:12:26;;;;;;;17.27;10.70;;;22.50;84.00;;;;;;5035137;28;20171;-75
2021/03/23 11:14:54;;;;;;;11.27;9.35;;;23.20;85.40;;;;;;5034800;28;20234;-75
2021/03/23 11:17:22;;;;;;;12.60;8.85;;;25.10;82.80;;;;;;5016963;28;20632;-75
2021/03/23 11:19:52;;;;;;;16.42;10.50;;;26.50;79.90;;;;;;5017267;28;20172;-75
2021/03/23 11:22:29;;;;;;;15.65;9.73;;;27.20;78.60;;;;;;5034992;28;20164;-75
2021/03/23 11:24:55;;;;;;;15.05;10.07;;;26.50;77.30;;;;;;5034666;28;20203;-75
2021/03/23 11:27:26;;;;;;;16.10;10.15;;;26.90;79.50;;;;;;5034450;28;20587;-75
2021/03/23 11:29:51;;;;;;;26.48;11.05;;;27.60;79.20;;;;;;5016838;28;20173;-76
2021/03/23 11:32:17;;;;;;;18.20;10.75;;;27.30;77.90;;;;;;5034787;28;20218;-75
2021/03/23 11:34:42;;;;;;;14.40;10.25;;;26.30;77.70;;;;;;5017008;28;20198;-75
2021/03/23 11:37:08;;;;;;;19.95;10.32;;;26.50;76.60;;;;;;5029585;28;20179;-75
2021/03/23 11:39:34;;;;;;;13.60;10.55;;;26.70;77.30;;;;;;5015803;28;20562;-76
2021/03/23 11:42:10;;;;;;;18.52;11.13;;;25.30;79.90;;;;;;5034307;28;20164;-79
2021/03/23 11:44:41;;;;;;;19.15;11.75;;;24.10;80.20;;;;;;5019547;28;20211;-76
2021/03/23 11:47:24;;;;;;;14.75;10.13;;;23.90;81.30;;;;;;5034015;28;20164;-76
2021/03/23 11:50:04;;;;;;;18.55;11.02;;;23.70;82.70;;;;;;5034530;28;20175;-76
2021/03/23 11:52:29;;;;;;;24.52;10.77;;;21.70;84.10;;;;;;5016102;28;20298;-76
2021/03/23 11:54:57;;;;;;;21.08;11.80;;;20.90;88.00;;;;;;5015239;28;20258;-76
2021/03/23 11:57:24;;;;;;;17.45;11.05;;;20.30;89.00;;;;;;5034480;28;20183;-75
2021/03/23 11:59:51;;;;;;;28.02;11.43;;;19.90;90.90;;;;;;5016132;28;20164;-75
2021/03/23 12:02:17;;;;;;;22.88;11.57;;;21.50;88.50;;;;;;5016027;28;20182;-77
2021/03/23 12:04:43;;;;;;;17.23;10.85;;;21.40;87.90;;;;;;5015935;28;20204;-76
2021/03/23 12:07:25;;;;;;;27.65;12.43;;;21.00;88.80;;;;;;5015693;28;20172;-76
2021/03/23 12:10:11;;;;;;;22.67;10.95;;;23.00;87.00;;;;;;5033935;28;20180;-75
2021/03/23 12:13:15;;;;;;;15.30;11.00;;;24.20;83.90;;;;;;5033752;28;20816;-75
2021/03/23 12:15:46;;;;;;;26.45;11.90;;;24.60;84.20;;;;;;5033352;28;20596;-76
2021/03/23 12:18:15;;;;;;;25.15;11.65;;;25.30;82.60;;;;;;5014526;28;20548;-75
2021/03/23 12:20:42;;;;;;;26.98;11.95;;;25.70;80.70;;;;;;5033879;28;20168;-75
2021/03/23 12:23:08;;;;;;;14.63;10.70;;;25.80;80.30;;;;;;5033786;28;20266;-75
2021/03/23 12:25:36;;;;;;;22.20;11.68;;;24.50;83.60;;;;;;5033363;28;20200;-75
2021/03/23 12:28:02;;;;;;;16.63;10.23;;;24.50;83.60;;;;;;5015670;28;20218;-75
2021/03/23 12:30:28;;;;;;;18.55;11.80;;;23.70;83.40;;;;;;5033842;28;20188;-75
2021/03/23 12:32:55;;;;;;;20.67;12.18;;;23.50;85.40;;;;;;5033628;28;20683;-75
2021/03/23 12:35:27;;;;;;;25.52;12.63;;;22.80;83.80;;;;;;5015571;28;20172;-75
2021/03/23 12:37:56;;;;;;;21.88;12.90;;;22.30;85.80;;;;;;5033426;28;20188;-75
2021/03/23 12:40:24;;;;;;;18.58;12.80;;;22.00;85.80;;;;;;5015881;28;20188;-75
2021/03/23 12:42:51;;;;;;;28.05;13.45;;;21.00;89.20;;;;;;5033331;28;20168;-75
2021/03/23 12:45:30;;;;;;;21.77;12.48;;;20.90;88.40;;;;;;5033278;28;20208;-75
2021/03/23 12:47:56;;;;;;;24.15;13.23;;;19.90;90.40;;;;;;5039672;28;20206;-78
2021/03/23 12:50:23;;;;;;;18.58;11.90;;;19.10;91.60;;;;;;5036300;28;20208;-75
2021/03/23 12:52:51;;;;;;;21.60;13.85;;;18.40;93.10;;;;;;5015461;28;20214;-75
2021/03/23 12:55:21;;;;;;;19.85;12.98;;;17.90;93.20;;;;;;5033096;28;20184;-75